createdAt,value
2019-02-23T00:02:20.479Z,95.32
2019-02-23T00:04:48.782Z,96.24
2019-02-23T00:07:17.100Z,97.02
2019-02-23T00:09:45.405Z,95.31
2019-02-23T00:12:13.818Z,93.94
2019-02-23T00:14:42.521Z,92.40
2019-02-23T00:17:10.819Z,92.54
2019-02-23T00:19:39.135Z,91.10
2019-02-23T00:22:07.437Z,91.10
2019-02-23T00:24:35.750Z,91.33
2019-02-23T00:27:04.059Z,92.02
2019-02-23T00:29:32.347Z,91.31
2019-02-23T00:32:00.983Z,91.20
2019-02-23T00:34:29.280Z,91.64
2019-02-23T00:36:57.607Z,92.14
2019-02-23T00:39:26.184Z,91.33
2019-02-23T00:41:54.484Z,93.01
2019-02-23T00:44:22.808Z,94.12
2019-02-23T00:46:51.109Z,92.89
2019-02-23T00:49:19.443Z,92.71
2019-02-23T00:51:48.040Z,91.97
2019-02-23T00:54:16.371Z,92.94
2019-02-23T00:56:45.011Z,93.90
2019-02-23T00:59:13.312Z,94.26
2019-02-23T01:01:41.795Z,94.65
2019-02-23T01:04:10.097Z,95.57
2019-02-23T01:06:38.400Z,95.02
2019-02-23T01:09:06.709Z,94.19
2019-02-23T01:11:35.007Z,93.22
2019-02-23T01:14:03.388Z,91.76
2019-02-23T01:16:31.685Z,90.76
2019-02-23T01:19:00.025Z,91.13
2019-02-23T01:21:28.323Z,89.75
2019-02-23T01:23:56.624Z,89.46
2019-02-23T01:26:24.937Z,88.84
2019-02-23T01:28:53.244Z,85.16
2019-02-23T01:31:21.576Z,83.71
2019-02-23T01:33:50.224Z,84.79
2019-02-23T01:36:18.592Z,84.45
2019-02-23T01:38:46.911Z,83.75
2019-02-23T01:41:15.204Z,83.39
2019-02-23T01:43:43.535Z,84.38
2019-02-23T01:46:11.833Z,85.05
2019-02-23T01:48:40.134Z,84.96
2019-02-23T01:51:08.451Z,85.77
2019-02-23T01:53:36.759Z,85.77
2019-02-23T01:56:05.553Z,86.12
2019-02-23T01:58:33.852Z,86.15
2019-02-23T02:01:02.153Z,86.39
2019-02-23T02:03:30.477Z,86.74
2019-02-23T02:05:59.252Z,86.90
2019-02-23T02:08:27.655Z,88.43
2019-02-23T02:10:56.323Z,88.42
2019-02-23T02:13:25.041Z,87.83
2019-02-23T02:15:53.727Z,87.31
2019-02-23T02:18:22.194Z,87.39
2019-02-23T02:20:50.520Z,87.59
2019-02-23T02:23:18.817Z,88.30
2019-02-23T02:25:47.173Z,87.48
2019-02-23T02:28:15.496Z,87.64
2019-02-23T02:30:43.801Z,87.80
2019-02-23T02:33:12.134Z,88.67
2019-02-23T02:35:40.442Z,88.96
2019-02-23T02:38:08.748Z,88.15
2019-02-23T02:40:37.071Z,88.04
2019-02-23T02:43:05.439Z,89.93
2019-02-23T02:45:34.108Z,90.39
2019-02-23T02:48:02.620Z,91.13
2019-02-23T02:50:31.283Z,90.15
2019-02-23T02:52:59.675Z,90.01
2019-02-23T02:55:27.980Z,89.10
2019-02-23T02:57:56.400Z,88.78
2019-02-23T03:00:24.696Z,89.64
2019-02-23T03:02:53.024Z,89.94
2019-02-23T03:05:21.468Z,89.30
2019-02-23T03:07:49.808Z,87.42
2019-02-23T03:10:18.191Z,87.18
2019-02-23T03:12:46.923Z,87.44
2019-02-23T03:15:15.247Z,88.09
2019-02-23T03:17:43.886Z,87.02
2019-02-23T03:20:12.216Z,87.56
2019-02-23T03:22:40.551Z,87.81
2019-02-23T03:25:08.914Z,87.40
2019-02-23T03:27:37.226Z,87.79
2019-02-23T03:30:08.502Z,88.16
2019-02-23T03:32:36.805Z,87.28
2019-02-23T03:35:05.672Z,87.45
2019-02-23T03:37:34.063Z,88.38
2019-02-23T03:40:02.619Z,89.29
2019-02-23T03:42:30.955Z,90.33
2019-02-23T03:44:59.570Z,91.65
2019-02-23T03:47:27.961Z,91.81
2019-02-23T03:49:56.290Z,93.38
2019-02-23T03:52:24.595Z,95.09
2019-02-23T03:54:52.934Z,96.54
2019-02-23T03:57:21.240Z,97.41
2019-02-23T03:59:49.544Z,99.78
2019-02-23T04:02:18.251Z,100.00
2019-02-23T04:04:46.549Z,100.00
2019-02-23T04:07:14.874Z,100.00
2019-02-23T04:09:43.494Z,100.00
2019-02-23T04:12:11.802Z,100.00
2019-02-23T04:14:40.124Z,100.00
2019-02-23T04:17:08.503Z,100.00
2019-02-23T04:19:36.842Z,100.00
2019-02-23T04:22:05.146Z,100.00
2019-02-23T04:24:33.475Z,100.00
2019-02-23T04:27:01.789Z,100.00
2019-02-23T04:29:30.172Z,100.00
2019-02-23T04:31:58.505Z,100.00
2019-02-23T04:34:26.826Z,100.00
2019-02-23T04:36:55.158Z,100.00
2019-02-23T04:39:23.469Z,100.00
2019-02-23T04:41:51.799Z,100.00
2019-02-23T04:44:20.106Z,100.00
2019-02-23T04:46:49.221Z,100.00
2019-02-23T04:49:17.551Z,100.00
2019-02-23T04:51:45.857Z,100.00
2019-02-23T04:54:14.190Z,100.00
2019-02-23T04:56:42.499Z,100.00
2019-02-23T04:59:10.911Z,100.00
2019-02-23T05:01:39.221Z,100.00
2019-02-23T05:04:07.530Z,100.00
2019-02-23T05:06:35.853Z,100.00
2019-02-23T05:09:05.312Z,100.00
2019-02-23T05:11:33.638Z,100.00
2019-02-23T05:14:01.974Z,100.00
2019-02-23T05:16:30.290Z,100.00
2019-02-23T05:18:58.750Z,100.00
2019-02-23T05:21:27.143Z,100.00
2019-02-23T05:23:55.468Z,100.00
2019-02-23T05:26:23.779Z,100.00
2019-02-23T05:28:52.420Z,100.00
2019-02-23T05:31:22.253Z,100.00
2019-02-23T05:33:50.750Z,100.00
2019-02-23T05:36:19.073Z,100.00
2019-02-23T05:38:47.443Z,100.00
2019-02-23T05:41:15.766Z,100.00
2019-02-23T05:43:44.077Z,100.00
2019-02-23T05:46:12.484Z,100.00
2019-02-23T05:48:40.790Z,100.00
2019-02-23T05:51:09.101Z,100.00
2019-02-23T05:53:37.433Z,100.00
2019-02-23T05:56:05.756Z,100.00
2019-02-23T05:58:34.080Z,100.00
2019-02-23T06:01:03.372Z,100.00
2019-02-23T06:03:31.698Z,100.00
2019-02-23T06:06:01.272Z,100.00
2019-02-23T06:08:29.511Z,100.00
2019-02-23T06:10:58.191Z,100.00
2019-02-23T06:13:26.525Z,100.00
2019-02-23T06:15:54.838Z,100.00
2019-02-23T06:18:23.142Z,100.00
2019-02-23T06:20:51.544Z,100.00
2019-02-23T06:23:19.855Z,100.00
2019-02-23T06:25:48.174Z,100.00
2019-02-23T06:28:16.478Z,100.00
2019-02-23T06:30:44.810Z,100.00
2019-02-23T06:33:13.118Z,100.00
2019-02-23T06:35:41.511Z,100.00
2019-02-23T06:38:09.818Z,100.00
2019-02-23T06:40:38.130Z,100.00
2019-02-23T06:43:06.457Z,100.00
2019-02-23T06:45:34.774Z,100.00
2019-02-23T06:48:03.396Z,99.25
2019-02-23T06:50:31.995Z,99.76
2019-02-23T06:53:00.298Z,98.96
2019-02-23T06:55:28.627Z,97.86
2019-02-23T06:57:56.929Z,96.07
2019-02-23T07:00:25.276Z,94.27
2019-02-23T07:02:53.589Z,94.74
2019-02-23T07:05:21.902Z,92.59
2019-02-23T07:07:50.218Z,91.38
2019-02-23T07:10:18.530Z,90.75
2019-02-23T07:12:46.856Z,91.74
2019-02-23T07:15:15.378Z,89.73
2019-02-23T07:17:43.679Z,88.93
2019-02-23T07:20:12.552Z,87.99
2019-02-23T07:22:41.142Z,88.48
2019-02-23T07:25:10.439Z,88.00
2019-02-23T07:27:38.746Z,87.34
2019-02-23T07:30:10.351Z,85.40
2019-02-23T07:32:38.662Z,84.40
2019-02-23T07:35:08.077Z,84.35
2019-02-23T07:37:36.392Z,83.33
2019-02-23T07:40:08.093Z,80.96
2019-02-23T07:42:36.444Z,81.36
2019-02-23T07:45:06.794Z,79.63
2019-02-23T07:47:35.101Z,78.11
2019-02-23T07:50:03.855Z,76.39
2019-02-23T07:52:32.163Z,75.93
2019-02-23T07:55:00.491Z,75.04
2019-02-23T07:57:28.806Z,74.26
2019-02-23T07:59:57.101Z,73.83
2019-02-23T08:02:25.935Z,74.65
2019-02-23T08:04:54.302Z,76.38
2019-02-23T08:07:22.638Z,74.32
2019-02-23T08:09:50.938Z,76.16
2019-02-23T08:12:19.231Z,75.71
2019-02-23T08:14:47.542Z,74.23
2019-02-23T08:17:15.844Z,73.18
2019-02-23T08:19:44.183Z,71.75
2019-02-23T08:22:12.560Z,70.37
2019-02-23T08:24:40.865Z,70.27
2019-02-23T08:27:09.189Z,70.72
2019-02-23T08:29:37.489Z,71.14
2019-02-23T08:32:06.176Z,67.22
2019-02-23T08:34:34.869Z,66.93
2019-02-23T08:37:03.364Z,65.19
2019-02-23T08:39:31.660Z,68.64
2019-02-23T08:41:59.986Z,66.84
2019-02-23T08:44:28.597Z,67.02
2019-02-23T08:46:56.891Z,70.94
2019-02-23T08:49:25.232Z,69.87
2019-02-23T08:51:53.529Z,72.40
2019-02-23T08:54:21.860Z,74.95
2019-02-23T08:56:50.435Z,74.72
2019-02-23T08:59:19.011Z,72.00
2019-02-23T09:01:47.329Z,70.20
2019-02-23T09:04:15.954Z,68.01
2019-02-23T09:06:44.273Z,69.02
2019-02-23T09:09:12.634Z,67.68
2019-02-23T09:11:40.868Z,68.48
2019-02-23T09:14:09.187Z,68.13
2019-02-23T09:16:37.488Z,66.16
2019-02-23T09:19:05.821Z,66.29
2019-02-23T09:21:34.117Z,65.69
2019-02-23T09:24:02.549Z,63.34
2019-02-23T09:26:31.194Z,65.42
2019-02-23T09:28:59.495Z,64.47
2019-02-23T09:31:27.808Z,64.61
2019-02-23T09:33:56.433Z,63.06
2019-02-23T09:36:24.753Z,63.06
2019-02-23T09:38:53.118Z,62.56
2019-02-23T09:41:21.449Z,61.61
2019-02-23T09:43:49.746Z,62.67
2019-02-23T09:46:18.042Z,60.58
2019-02-23T09:48:46.353Z,60.69
2019-02-23T09:51:14.647Z,60.42
2019-02-23T09:53:43.038Z,61.51
2019-02-23T09:56:11.351Z,60.14
2019-02-23T09:58:40.103Z,59.98
2019-02-23T10:01:08.735Z,57.15
2019-02-23T10:03:37.025Z,54.70
2019-02-23T10:06:05.414Z,55.34
2019-02-23T10:08:33.706Z,55.23
2019-02-23T10:11:02.025Z,55.60
2019-02-23T10:13:30.773Z,54.79
2019-02-23T10:15:59.092Z,53.96
2019-02-23T10:18:27.405Z,54.43
2019-02-23T10:20:55.695Z,55.63
2019-02-23T10:23:24.005Z,51.24
2019-02-23T10:25:52.302Z,47.94
2019-02-23T10:28:20.631Z,49.08
2019-02-23T10:30:49.318Z,47.33
2019-02-23T10:33:17.617Z,45.61
2019-02-23T10:35:45.935Z,44.48
2019-02-23T10:38:14.242Z,45.92
2019-02-23T10:40:42.584Z,41.18
2019-02-23T10:43:11.227Z,39.58
2019-02-23T10:45:39.527Z,38.85
2019-02-23T10:48:07.835Z,40.95
2019-02-23T10:50:36.198Z,40.48
2019-02-23T10:53:04.577Z,38.12
2019-02-23T10:55:32.886Z,41.25
2019-02-23T10:58:01.222Z,37.37
2019-02-23T11:00:30.513Z,34.19
2019-02-23T11:02:58.872Z,33.01
2019-02-23T11:05:27.187Z,34.05
2019-02-23T11:07:55.978Z,31.81
2019-02-23T11:10:24.442Z,34.76
2019-02-23T11:12:52.807Z,34.57
2019-02-23T11:15:22.102Z,34.67
2019-02-23T11:17:50.469Z,35.81
2019-02-23T11:20:19.151Z,34.24
2019-02-23T11:22:47.483Z,32.33
2019-02-23T11:25:16.173Z,33.73
2019-02-23T11:27:44.488Z,34.00
2019-02-23T11:30:15.391Z,35.29
2019-02-23T11:32:43.744Z,36.94
2019-02-23T11:35:17.305Z,33.71
2019-02-23T11:37:46.224Z,32.89
2019-02-23T11:40:15.671Z,32.19
2019-02-23T11:42:44.369Z,32.83
2019-02-23T11:45:12.815Z,32.37
2019-02-23T11:47:41.535Z,35.59
2019-02-23T11:50:11.701Z,34.45
2019-02-23T11:52:40.072Z,32.67
2019-02-23T11:55:08.509Z,32.10
2019-02-23T11:57:36.889Z,32.30
2019-02-23T12:00:10.446Z,33.13
2019-02-23T12:02:38.822Z,32.98
2019-02-23T12:05:08.356Z,30.54
2019-02-23T12:07:36.696Z,31.10
2019-02-23T12:10:08.169Z,32.72
2019-02-23T12:12:36.468Z,31.53
2019-02-23T12:15:05.943Z,30.28
2019-02-23T12:17:34.236Z,30.61
2019-02-23T12:20:02.889Z,29.54
2019-02-23T12:22:31.191Z,31.43
2019-02-23T12:24:59.507Z,29.89
2019-02-23T12:27:27.869Z,32.31
2019-02-23T12:29:56.125Z,32.52
2019-02-23T12:32:24.797Z,30.72
2019-02-23T12:34:53.132Z,30.08
2019-02-23T12:37:21.422Z,29.08
2019-02-23T12:39:49.732Z,28.69
2019-02-23T12:42:18.117Z,30.27
2019-02-23T12:44:46.428Z,28.81
2019-02-23T12:47:14.832Z,29.14
2019-02-23T12:49:43.130Z,28.87
2019-02-23T12:52:11.503Z,29.66
2019-02-23T12:54:39.823Z,30.39
2019-02-23T12:57:08.119Z,29.79
2019-02-23T12:59:36.452Z,29.54
2019-02-23T13:02:04.821Z,31.03
2019-02-23T13:04:33.124Z,28.66
2019-02-23T13:07:01.444Z,29.73
2019-02-23T13:09:32.489Z,29.28
2019-02-23T13:12:21.775Z,30.08
2019-02-23T13:14:56.263Z,29.41
2019-02-23T13:17:42.991Z,29.97
2019-02-23T13:20:26.075Z,27.80
2019-02-23T13:23:09.603Z,28.73
2019-02-23T13:25:50.025Z,28.81
2019-02-23T13:28:39.473Z,30.55
2019-02-23T13:31:16.508Z,30.21
2019-02-23T13:34:17.602Z,29.80
2019-02-23T13:37:05.475Z,29.53
2019-02-23T13:39:37.036Z,29.33
2019-02-23T13:42:23.354Z,31.03
2019-02-23T13:45:06.591Z,27.69
2019-02-23T13:48:00.560Z,29.30
2019-02-23T13:50:46.971Z,29.50
2019-02-23T13:53:36.711Z,29.27
2019-02-23T13:56:11.026Z,28.50
2019-02-23T13:58:42.499Z,29.18
2019-02-23T14:01:31.554Z,29.40
2019-02-23T14:04:47.837Z,27.92
2019-02-23T14:07:28.055Z,29.42
2019-02-23T14:10:29.282Z,28.28
2019-02-23T14:13:04.401Z,27.93
2019-02-23T14:15:57.080Z,28.78
2019-02-23T14:18:37.669Z,26.96
2019-02-23T14:21:09.146Z,28.72
2019-02-23T14:23:46.679Z,28.65
2019-02-23T14:26:45.446Z,27.76
2019-02-23T14:29:31.505Z,28.97
2019-02-23T14:32:06.008Z,28.55
2019-02-23T14:34:43.908Z,28.80
2019-02-23T14:37:30.200Z,25.49
2019-02-23T14:40:13.855Z,26.92
2019-02-23T14:42:54.427Z,26.57
2019-02-23T14:45:48.421Z,25.99
2019-02-23T14:48:36.082Z,28.45
2019-02-23T14:51:13.419Z,28.04
2019-02-23T14:54:04.505Z,26.73
2019-02-23T14:56:58.470Z,27.14
2019-02-23T14:59:41.988Z,26.86
2019-02-23T15:02:25.182Z,27.83
2019-02-23T15:05:17.910Z,27.63
2019-02-23T15:08:05.814Z,29.30
2019-02-23T15:11:12.883Z,28.57
2019-02-23T15:14:01.308Z,28.18
2019-02-23T15:16:32.787Z,28.43
2019-02-23T15:19:07.127Z,31.10
2019-02-23T15:21:47.403Z,33.13
2019-02-23T15:24:30.478Z,32.81
2019-02-23T15:27:20.391Z,33.56
2019-02-23T15:29:54.856Z,33.47
2019-02-23T15:33:01.280Z,34.02
2019-02-23T15:35:52.381Z,33.28
2019-02-23T15:38:42.351Z,32.86
2019-02-23T15:41:39.349Z,34.42
2019-02-23T15:44:31.292Z,33.24
2019-02-23T15:47:23.622Z,32.92
2019-02-23T15:49:51.907Z,33.39
2019-02-23T15:52:20.232Z,34.91
2019-02-23T15:54:48.511Z,33.35
2019-02-23T15:57:16.807Z,33.05
2019-02-23T15:59:45.133Z,33.51
2019-02-23T16:02:13.431Z,33.52
2019-02-23T16:04:41.832Z,34.33
2019-02-23T16:07:10.132Z,35.11
2019-02-23T16:09:38.438Z,35.43
2019-02-23T16:12:06.819Z,36.51
2019-02-23T16:14:35.114Z,36.86
2019-02-23T16:17:03.500Z,36.53
2019-02-23T16:19:31.823Z,37.32
2019-02-23T16:22:00.209Z,38.07
2019-02-23T16:24:28.511Z,38.73
2019-02-23T16:26:56.845Z,39.60
2019-02-23T16:29:25.137Z,39.83
2019-02-23T16:31:53.500Z,39.25
2019-02-23T16:34:22.135Z,40.53
2019-02-23T16:36:50.438Z,40.95
2019-02-23T16:39:18.783Z,40.59
2019-02-23T16:41:47.052Z,41.89
2019-02-23T16:44:15.345Z,42.57
2019-02-23T16:46:46.389Z,42.28
2019-02-23T16:49:14.029Z,42.98
2019-02-23T16:51:42.341Z,42.97
2019-02-23T16:54:11.956Z,42.67
2019-02-23T16:56:40.275Z,43.02
2019-02-23T16:59:08.566Z,43.38
2019-02-23T17:01:36.862Z,43.60
2019-02-23T17:04:05.177Z,43.27
2019-02-23T17:06:33.477Z,43.39
2019-02-23T17:09:01.792Z,45.26
2019-02-23T17:11:30.082Z,45.76
2019-02-23T17:13:58.378Z,45.92
2019-02-23T17:16:26.698Z,44.62
2019-02-23T17:18:54.999Z,44.04
2019-02-23T17:21:23.389Z,44.22
2019-02-23T17:23:51.685Z,44.12
2019-02-23T17:26:20.232Z,44.43
2019-02-23T17:28:48.542Z,45.40
2019-02-23T17:31:16.842Z,45.30
2019-02-23T17:33:45.150Z,45.19
2019-02-23T17:36:13.452Z,45.89
2019-02-23T17:38:44.713Z,45.85
2019-02-23T17:41:11.796Z,46.01
2019-02-23T17:43:40.299Z,45.68
2019-02-23T17:46:08.886Z,45.94
2019-02-23T17:48:37.246Z,46.42
2019-02-23T17:51:05.569Z,47.23
2019-02-23T17:53:33.862Z,47.36
2019-02-23T17:56:02.161Z,46.98
2019-02-23T17:58:31.321Z,47.21
2019-02-23T18:01:00.106Z,47.25
2019-02-23T18:03:28.418Z,47.75
2019-02-23T18:05:56.717Z,47.93
2019-02-23T18:08:25.045Z,47.98
2019-02-23T18:10:53.345Z,47.76
2019-02-23T18:13:21.712Z,48.26
2019-02-23T18:15:50.021Z,48.81
2019-02-23T18:18:18.672Z,48.74
2019-02-23T18:20:48.261Z,49.33
2019-02-23T18:23:16.854Z,49.93
2019-02-23T18:25:45.457Z,50.03
2019-02-23T18:28:13.850Z,49.52
2019-02-23T18:30:42.154Z,49.95
2019-02-23T18:33:10.481Z,50.33
2019-02-23T18:35:39.082Z,50.75
2019-02-23T18:38:07.379Z,51.91
2019-02-23T18:40:35.695Z,52.07
2019-02-23T18:43:03.995Z,51.77
2019-02-23T18:45:32.313Z,52.17
2019-02-23T18:48:00.628Z,51.77
2019-02-23T18:50:30.003Z,51.41
2019-02-23T18:52:58.295Z,51.73
2019-02-23T18:55:26.632Z,51.72
2019-02-23T18:57:54.928Z,51.85
2019-02-23T19:00:24.634Z,51.51
2019-02-23T19:02:53.023Z,51.57
2019-02-23T19:05:21.316Z,51.60
2019-02-23T19:07:50.000Z,51.35
2019-02-23T19:10:18.583Z,51.46
2019-02-23T19:12:46.896Z,51.47
2019-02-23T19:15:15.192Z,51.89
2019-02-23T19:17:43.534Z,51.47
2019-02-23T19:20:15.153Z,52.17
2019-02-23T19:22:43.454Z,52.90
2019-02-23T19:25:12.136Z,52.96
2019-02-23T19:27:40.442Z,54.24
2019-02-23T19:30:11.932Z,55.44
2019-02-23T19:32:40.303Z,55.09
2019-02-23T19:35:09.147Z,55.03
2019-02-23T19:37:37.525Z,55.37
2019-02-23T19:40:08.459Z,55.42
2019-02-23T19:42:37.168Z,55.34
2019-02-23T19:45:08.909Z,56.12
2019-02-23T19:47:37.972Z,55.83
2019-02-23T19:50:15.143Z,55.90
2019-02-23T19:52:43.598Z,55.83
2019-02-23T19:55:14.732Z,55.66
2019-02-23T19:57:43.073Z,56.71
2019-02-23T20:00:11.443Z,57.80
2019-02-23T20:02:39.911Z,58.03
2019-02-23T20:05:09.865Z,58.36
2019-02-23T20:07:38.156Z,58.58
2019-02-23T20:10:09.883Z,58.15
2019-02-23T20:12:38.880Z,58.33
2019-02-23T20:15:09.844Z,58.61
2019-02-23T20:17:38.142Z,59.01
2019-02-23T20:20:07.584Z,58.71
2019-02-23T20:22:35.905Z,59.17
2019-02-23T20:25:05.458Z,59.21
2019-02-23T20:27:33.774Z,59.74
2019-02-23T20:30:02.430Z,59.56
2019-02-23T20:32:31.377Z,60.13
2019-02-23T20:34:59.672Z,61.69
2019-02-23T20:37:27.975Z,61.13
2019-02-23T20:39:56.301Z,60.84
2019-02-23T20:42:24.607Z,60.37
2019-02-23T20:44:52.928Z,60.73
2019-02-23T20:47:21.231Z,60.07
2019-02-23T20:49:50.382Z,60.07
2019-02-23T20:52:18.989Z,59.34
2019-02-23T20:54:47.321Z,59.16
2019-02-23T20:57:15.622Z,58.97
2019-02-23T20:59:44.483Z,58.45
2019-02-23T21:02:12.803Z,57.69
2019-02-23T21:04:41.098Z,57.73
2019-02-23T21:07:09.410Z,58.31
2019-02-23T21:09:38.181Z,58.04
2019-02-23T21:12:06.584Z,58.27
2019-02-23T21:14:34.891Z,57.41
2019-02-23T21:17:03.195Z,55.75
2019-02-23T21:19:31.519Z,55.32
2019-02-23T21:21:59.818Z,55.45
2019-02-23T21:24:28.135Z,56.27
2019-02-23T21:26:56.747Z,55.97
2019-02-23T21:29:25.093Z,55.59
2019-02-23T21:31:53.399Z,56.81
2019-02-23T21:34:21.991Z,56.82
2019-02-23T21:36:50.680Z,55.27
2019-02-23T21:39:19.048Z,54.84
2019-02-23T21:41:48.102Z,55.45
2019-02-23T21:44:16.394Z,56.09
2019-02-23T21:46:44.759Z,56.78
2019-02-23T21:49:13.079Z,57.13
2019-02-23T21:51:41.383Z,57.89
2019-02-23T21:54:10.853Z,58.82
2019-02-23T21:56:40.006Z,58.75
2019-02-23T21:59:08.300Z,59.13
2019-02-23T22:01:36.607Z,60.24
2019-02-23T22:04:05.237Z,61.58
2019-02-23T22:06:33.609Z,62.13
2019-02-23T22:09:01.922Z,62.24
2019-02-23T22:11:30.255Z,63.04
2019-02-23T22:13:58.534Z,63.48
2019-02-23T22:16:26.861Z,63.63
2019-02-23T22:18:55.149Z,63.62
2019-02-23T22:21:23.467Z,64.11
2019-02-23T22:23:51.756Z,63.89
2019-02-23T22:26:20.146Z,64.88
2019-02-23T22:28:48.458Z,65.32
2019-02-23T22:31:16.747Z,65.42
2019-02-23T22:33:45.070Z,65.33
2019-02-23T22:36:13.684Z,66.39
2019-02-23T22:38:42.000Z,66.80
2019-02-23T22:41:10.358Z,66.47
2019-02-23T22:43:38.679Z,66.67
2019-02-23T22:46:06.984Z,64.96
2019-02-23T22:48:35.304Z,65.92
2019-02-23T22:51:03.602Z,66.21
2019-02-23T22:53:31.925Z,65.64
2019-02-23T22:56:00.536Z,66.55
2019-02-23T22:58:28.830Z,66.61
2019-02-23T23:00:58.932Z,67.20
2019-02-23T23:03:27.221Z,66.45
2019-02-23T23:05:55.604Z,65.77
2019-02-23T23:08:23.906Z,66.14
2019-02-23T23:10:52.243Z,65.43
2019-02-23T23:13:20.536Z,63.64
2019-02-23T23:15:48.850Z,63.71
2019-02-23T23:18:17.155Z,63.59
2019-02-23T23:20:45.779Z,64.37
2019-02-23T23:23:14.090Z,66.31
2019-02-23T23:25:42.460Z,69.11
2019-02-23T23:28:10.785Z,79.24
2019-02-23T23:30:39.088Z,81.03
2019-02-23T23:33:07.406Z,80.52
2019-02-23T23:35:35.774Z,74.23
2019-02-23T23:38:04.349Z,72.46
2019-02-23T23:40:32.656Z,72.34
2019-02-23T23:43:00.960Z,71.72
2019-02-23T23:45:29.272Z,71.56
2019-02-23T23:47:57.574Z,71.04
2019-02-23T23:50:25.901Z,71.45
2019-02-23T23:52:54.194Z,71.96
2019-02-23T23:55:22.599Z,72.87
2019-02-23T23:57:58.100Z,73.42
